createdAt,value
2018-02-09T00:00:38.181Z,6.29
2018-02-09T00:03:05.971Z,6.32
2018-02-09T00:05:33.666Z,6.30
2018-02-09T00:08:01.307Z,6.23
2018-02-09T00:10:29.075Z,6.32
2018-02-09T00:12:56.638Z,6.30
2018-02-09T00:15:24.193Z,6.27
2018-02-09T00:17:51.758Z,6.22
2018-02-09T00:20:19.584Z,6.18
2018-02-09T00:22:53.425Z,6.14
2018-02-09T00:25:20.989Z,6.11
2018-02-09T00:27:48.552Z,6.11
2018-02-09T00:30:16.282Z,6.09
2018-02-09T00:32:43.970Z,6.11
2018-02-09T00:35:11.684Z,6.13
2018-02-09T00:37:39.240Z,6.23
2018-02-09T00:40:06.814Z,6.29
2018-02-09T00:42:34.566Z,6.30
2018-02-09T00:45:02.129Z,6.35
2018-02-09T00:47:29.814Z,6.39
2018-02-09T00:49:57.621Z,6.40
2018-02-09T00:52:25.188Z,6.44
2018-02-09T00:54:52.749Z,6.45
2018-02-09T00:57:20.458Z,6.50
2018-02-09T00:59:48.021Z,6.52
2018-02-09T01:02:15.811Z,6.53
2018-02-09T01:04:43.405Z,6.44
2018-02-09T01:07:11.018Z,6.46
2018-02-09T01:09:38.562Z,6.42
2018-02-09T01:12:06.204Z,6.39
2018-02-09T01:14:33.766Z,6.43
2018-02-09T01:17:01.486Z,6.51
2018-02-09T01:19:29.113Z,6.52
2018-02-09T01:21:56.819Z,6.62
2018-02-09T01:24:24.534Z,6.66
2018-02-09T01:26:52.429Z,6.63
2018-02-09T01:29:19.995Z,6.57
2018-02-09T01:31:47.727Z,6.50
2018-02-09T01:34:15.285Z,6.44
2018-02-09T01:36:42.909Z,6.43
2018-02-09T01:39:10.681Z,6.38
2018-02-09T01:41:38.261Z,6.32
2018-02-09T01:44:05.840Z,6.31
2018-02-09T01:46:33.395Z,6.38
2018-02-09T01:49:00.961Z,6.45
2018-02-09T01:51:28.534Z,6.52
2018-02-09T01:53:56.289Z,6.55
2018-02-09T01:56:24.006Z,6.60
2018-02-09T01:58:51.553Z,6.70
2018-02-09T02:01:19.161Z,6.72
2018-02-09T02:03:46.721Z,6.79
2018-02-09T02:06:14.478Z,6.86
2018-02-09T02:08:42.296Z,6.83
2018-02-09T02:11:09.866Z,6.81
2018-02-09T02:13:37.406Z,6.79
2018-02-09T02:16:05.029Z,6.82
2018-02-09T02:18:32.587Z,6.85
2018-02-09T02:21:00.128Z,6.80
2018-02-09T02:23:27.658Z,6.87
2018-02-09T02:25:55.524Z,6.88
2018-02-09T02:28:23.339Z,6.78
2018-02-09T02:30:51.025Z,6.74
2018-02-09T02:33:18.878Z,6.65
2018-02-09T02:35:46.424Z,6.57
2018-02-09T02:38:13.990Z,6.69
2018-02-09T02:40:41.615Z,6.67
2018-02-09T02:43:09.177Z,6.70
2018-02-09T02:45:36.775Z,6.70
2018-02-09T02:48:04.595Z,6.64
2018-02-09T02:50:32.189Z,6.64
2018-02-09T02:52:59.777Z,6.51
2018-02-09T02:55:27.537Z,6.56
2018-02-09T02:57:55.137Z,6.53
2018-02-09T03:00:22.873Z,6.57
2018-02-09T03:02:50.442Z,6.66
2018-02-09T03:05:18.210Z,6.73
2018-02-09T03:07:45.761Z,6.71
2018-02-09T03:10:13.321Z,6.65
2018-02-09T03:12:40.877Z,6.63
2018-02-09T03:15:08.682Z,6.66
2018-02-09T03:17:36.361Z,6.67
2018-02-09T03:20:03.941Z,6.58
2018-02-09T03:22:31.501Z,6.55
2018-02-09T03:24:59.057Z,6.51
2018-02-09T03:27:26.617Z,6.48
2018-02-09T03:29:54.183Z,6.46
2018-02-09T03:32:21.746Z,6.45
2018-02-09T03:34:50.200Z,6.49
2018-02-09T03:37:17.805Z,6.45
2018-02-09T03:39:45.349Z,6.38
2018-02-09T03:42:13.049Z,6.39
2018-02-09T03:44:40.600Z,6.33
2018-02-09T03:47:08.166Z,6.27
2018-02-09T03:49:35.726Z,6.21
2018-02-09T03:52:03.615Z,6.16
2018-02-09T03:54:31.355Z,6.15
2018-02-09T03:56:59.047Z,6.15
2018-02-09T03:59:26.620Z,6.15
2018-02-09T04:01:54.425Z,6.13
2018-02-09T04:04:22.001Z,6.17
2018-02-09T04:06:49.557Z,6.24
2018-02-09T04:09:17.112Z,6.28
2018-02-09T04:11:44.673Z,6.34
2018-02-09T04:14:12.385Z,6.37
2018-02-09T04:16:39.949Z,6.37
2018-02-09T04:19:07.563Z,6.51
2018-02-09T04:21:35.562Z,6.49
2018-02-09T04:24:03.387Z,6.45
2018-02-09T04:26:31.107Z,6.41
2018-02-09T04:28:58.924Z,6.37
2018-02-09T04:31:26.535Z,6.40
2018-02-09T04:33:54.109Z,6.41
2018-02-09T04:36:21.877Z,6.42
2018-02-09T04:38:49.429Z,6.48
2018-02-09T04:41:16.989Z,6.44
2018-02-09T04:43:44.538Z,6.41
2018-02-09T04:46:12.348Z,6.34
2018-02-09T04:48:40.039Z,6.28
2018-02-09T04:51:07.755Z,6.27
2018-02-09T04:53:35.322Z,6.27
2018-02-09T04:56:02.873Z,6.23
2018-02-09T04:58:30.520Z,6.18
2018-02-09T05:00:58.085Z,6.11
2018-02-09T05:03:25.640Z,6.09
2018-02-09T05:05:53.206Z,6.12
2018-02-09T05:08:20.770Z,6.17
2018-02-09T05:10:48.530Z,6.24
2018-02-09T05:13:16.115Z,6.26
2018-02-09T05:15:43.965Z,6.23
2018-02-09T05:18:11.534Z,6.24
2018-02-09T05:20:39.086Z,6.19
2018-02-09T05:23:07.235Z,6.24
2018-02-09T05:25:34.944Z,6.27
2018-02-09T05:28:02.499Z,6.31
2018-02-09T05:30:30.061Z,6.32
2018-02-09T05:32:57.790Z,6.38
2018-02-09T05:35:25.357Z,6.35
2018-02-09T05:37:52.913Z,6.39
2018-02-09T05:40:20.644Z,6.43
2018-02-09T05:42:48.213Z,6.48
2018-02-09T05:45:15.874Z,6.54
2018-02-09T05:47:43.630Z,6.46
2018-02-09T05:50:11.193Z,6.39
2018-02-09T05:52:38.750Z,6.35
2018-02-09T05:55:06.544Z,6.28
2018-02-09T05:57:34.102Z,6.29
2018-02-09T06:00:01.781Z,6.32
2018-02-09T06:02:29.477Z,6.30
2018-02-09T06:04:57.115Z,6.31
2018-02-09T06:07:24.658Z,6.37
2018-02-09T06:09:52.241Z,6.39
2018-02-09T06:12:19.943Z,6.35
2018-02-09T06:14:47.505Z,6.42
2018-02-09T06:17:15.126Z,6.49
2018-02-09T06:19:42.693Z,6.66
2018-02-09T06:22:10.252Z,6.72
2018-02-09T06:24:37.821Z,6.67
2018-02-09T06:27:05.592Z,6.58
2018-02-09T06:29:33.162Z,6.47
2018-02-09T06:32:00.720Z,6.44
2018-02-09T06:34:28.353Z,6.42
2018-02-09T06:36:56.158Z,6.24
2018-02-09T06:39:23.713Z,6.37
2018-02-09T06:41:51.382Z,6.36
2018-02-09T06:44:19.110Z,6.32
2018-02-09T06:46:46.704Z,6.33
2018-02-09T06:49:14.435Z,6.31
2018-02-09T06:51:42.264Z,6.35
2018-02-09T06:54:10.797Z,6.31
2018-02-09T06:56:38.395Z,6.32
2018-02-09T06:59:06.100Z,6.34
2018-02-09T07:01:33.658Z,6.33
2018-02-09T07:04:01.207Z,6.37
2018-02-09T07:06:28.753Z,6.34
2018-02-09T07:08:56.594Z,6.33
2018-02-09T07:11:24.163Z,6.30
2018-02-09T07:13:51.721Z,6.33
2018-02-09T07:16:19.346Z,6.37
2018-02-09T07:18:46.958Z,6.46
2018-02-09T07:21:14.599Z,6.45
2018-02-09T07:23:42.145Z,6.49
2018-02-09T07:26:09.766Z,6.54
2018-02-09T07:28:37.494Z,6.56
2018-02-09T07:31:05.236Z,6.64
2018-02-09T07:33:32.927Z,6.68
2018-02-09T07:36:00.489Z,6.65
2018-02-09T07:38:28.099Z,6.74
2018-02-09T07:40:55.717Z,6.79
2018-02-09T07:43:23.849Z,6.80
2018-02-09T07:45:51.418Z,6.79
2018-02-09T07:48:18.976Z,6.78
2018-02-09T07:50:46.532Z,6.78
2018-02-09T07:53:14.107Z,6.80
2018-02-09T07:55:41.670Z,6.84
2018-02-09T07:58:09.329Z,6.84
2018-02-09T08:00:37.071Z,6.86
2018-02-09T08:03:04.796Z,6.79
2018-02-09T08:05:32.353Z,6.72
2018-02-09T08:08:00.124Z,6.71
2018-02-09T08:10:27.688Z,6.69
2018-02-09T08:12:55.461Z,6.68
2018-02-09T08:15:24.366Z,6.73
2018-02-09T08:17:52.149Z,6.79
2018-02-09T08:20:19.782Z,6.81
2018-02-09T08:22:47.681Z,6.88
2018-02-09T08:25:15.397Z,6.96
2018-02-09T08:27:42.953Z,7.08
2018-02-09T08:30:10.522Z,7.12
2018-02-09T08:32:38.081Z,7.06
2018-02-09T08:35:05.880Z,7.08
2018-02-09T08:37:33.596Z,7.09
2018-02-09T08:40:01.168Z,7.14
2018-02-09T08:42:28.789Z,7.15
2018-02-09T08:44:56.341Z,7.21
2018-02-09T08:47:24.171Z,7.17
2018-02-09T08:49:51.856Z,7.16
2018-02-09T08:52:19.492Z,7.17
2018-02-09T08:54:47.222Z,7.18
2018-02-09T08:57:14.941Z,7.16
2018-02-09T08:59:42.512Z,7.14
2018-02-09T09:02:10.068Z,7.12
2018-02-09T09:04:37.648Z,7.23
2018-02-09T09:07:05.214Z,7.27
2018-02-09T09:09:32.838Z,7.35
2018-02-09T09:12:00.417Z,7.43
2018-02-09T09:14:27.978Z,7.47
2018-02-09T09:16:55.539Z,7.46
2018-02-09T09:19:23.278Z,7.56
2018-02-09T09:21:50.843Z,7.65
2018-02-09T09:24:18.409Z,7.72
2018-02-09T09:26:46.259Z,7.93
2018-02-09T09:29:13.871Z,8.12
2018-02-09T09:31:41.435Z,8.25
2018-02-09T09:34:09.089Z,8.36
2018-02-09T09:36:36.827Z,8.61
2018-02-09T09:39:04.496Z,9.10
2018-02-09T09:41:32.073Z,9.57
2018-02-09T09:43:59.697Z,10.03
2018-02-09T09:46:27.394Z,10.53
2018-02-09T09:48:54.981Z,10.66
2018-02-09T09:51:22.812Z,11.17
2018-02-09T09:53:50.528Z,11.57
2018-02-09T09:56:18.089Z,11.58
2018-02-09T09:58:45.890Z,11.25
2018-02-09T10:01:19.430Z,11.08
2018-02-09T10:03:46.985Z,10.77
2018-02-09T10:06:14.550Z,10.30
2018-02-09T10:08:42.127Z,10.15
2018-02-09T10:11:09.900Z,10.33
2018-02-09T10:13:37.491Z,10.39
2018-02-09T10:16:05.059Z,10.32
2018-02-09T10:18:32.853Z,10.74
2018-02-09T10:21:00.571Z,11.67
2018-02-09T10:23:28.240Z,12.89
2018-02-09T10:25:56.010Z,13.66
2018-02-09T10:28:23.561Z,13.77
2018-02-09T10:30:51.220Z,13.93
2018-02-09T10:33:18.786Z,13.77
2018-02-09T10:35:46.509Z,13.41
2018-02-09T10:38:14.298Z,13.43
2018-02-09T10:40:41.893Z,13.71
2018-02-09T10:43:09.513Z,14.03
2018-02-09T10:45:37.257Z,13.63
2018-02-09T10:48:04.862Z,13.50
2018-02-09T10:50:32.589Z,13.76
2018-02-09T10:53:00.407Z,13.92
2018-02-09T10:55:27.954Z,13.87
2018-02-09T10:57:55.743Z,14.10
2018-02-09T11:00:28.994Z,14.76
2018-02-09T11:02:56.698Z,14.72
2018-02-09T11:05:24.518Z,15.14
2018-02-09T11:07:52.131Z,15.74
2018-02-09T11:10:25.216Z,16.09
2018-02-09T11:12:52.871Z,16.13
2018-02-09T11:15:20.686Z,14.87
2018-02-09T11:17:48.252Z,14.91
2018-02-09T11:20:15.814Z,14.81
2018-02-09T11:22:43.563Z,14.93
2018-02-09T11:25:11.124Z,14.87
2018-02-09T11:27:38.689Z,15.14
2018-02-09T11:30:06.231Z,15.07
2018-02-09T11:32:34.009Z,14.79
2018-02-09T11:35:01.752Z,14.66
2018-02-09T11:37:29.316Z,15.45
2018-02-09T11:39:56.888Z,15.36
2018-02-09T11:42:24.445Z,15.72
2018-02-09T11:44:52.006Z,15.89
2018-02-09T11:47:19.554Z,15.36
2018-02-09T11:49:47.422Z,14.63
2018-02-09T11:52:14.978Z,14.85
2018-02-09T11:54:42.695Z,15.78
2018-02-09T11:57:10.262Z,15.96
2018-02-09T11:59:37.833Z,15.87
2018-02-09T12:02:05.402Z,15.51
2018-02-09T12:04:33.073Z,15.31
2018-02-09T12:07:00.940Z,15.28
2018-02-09T12:09:28.486Z,14.98
2018-02-09T12:11:56.038Z,15.30
2018-02-09T12:14:23.843Z,15.58
2018-02-09T12:16:51.474Z,15.77
2018-02-09T12:19:19.053Z,15.98
2018-02-09T12:21:46.637Z,16.42
2018-02-09T12:24:14.250Z,16.65
2018-02-09T12:26:41.919Z,17.17
2018-02-09T12:29:09.487Z,17.16
2018-02-09T12:31:37.053Z,16.60
2018-02-09T12:34:04.621Z,16.47
2018-02-09T12:36:32.291Z,16.42
2018-02-09T12:38:59.845Z,16.26
2018-02-09T12:41:27.601Z,17.07
2018-02-09T12:43:55.312Z,18.09
2018-02-09T12:46:22.964Z,18.64
2018-02-09T12:48:50.558Z,17.82
2018-02-09T12:51:18.118Z,17.56
2018-02-09T12:53:45.686Z,17.80
2018-02-09T12:56:13.256Z,17.63
2018-02-09T12:58:40.978Z,16.89
2018-02-09T13:01:08.537Z,16.92
2018-02-09T13:03:36.270Z,17.19
2018-02-09T13:06:04.115Z,17.65
2018-02-09T13:08:31.833Z,17.95
2018-02-09T13:10:59.542Z,18.17
2018-02-09T13:13:27.106Z,17.06
2018-02-09T13:15:54.725Z,16.40
2018-02-09T13:18:34.097Z,16.69
2018-02-09T13:21:01.755Z,17.92
2018-02-09T13:23:41.002Z,18.15
2018-02-09T13:26:08.596Z,18.63
2018-02-09T13:28:47.943Z,18.91
2018-02-09T13:31:15.717Z,18.74
2018-02-09T13:33:43.537Z,18.97
2018-02-09T13:36:11.474Z,19.45
2018-02-09T13:38:39.033Z,20.19
2018-02-09T13:41:06.793Z,19.27
2018-02-09T13:43:34.353Z,19.20
2018-02-09T13:46:02.101Z,18.70
2018-02-09T13:48:29.659Z,18.45
2018-02-09T13:50:57.466Z,18.71
2018-02-09T13:53:25.042Z,19.26
2018-02-09T13:55:52.691Z,19.37
2018-02-09T13:58:20.297Z,19.41
2018-02-09T14:00:48.000Z,20.01
2018-02-09T14:03:15.534Z,20.46
2018-02-09T14:05:43.279Z,20.78
2018-02-09T14:08:10.851Z,20.49
2018-02-09T14:10:38.418Z,20.66
2018-02-09T14:13:06.225Z,20.28
2018-02-09T14:15:33.945Z,20.52
2018-02-09T14:18:01.762Z,20.11
2018-02-09T14:20:29.481Z,20.07
2018-02-09T14:22:57.055Z,20.13
2018-02-09T14:25:24.817Z,20.59
2018-02-09T14:27:52.534Z,20.65
2018-02-09T14:30:20.102Z,20.24
2018-02-09T14:32:47.658Z,19.97
2018-02-09T14:35:15.275Z,19.75
2018-02-09T14:37:42.924Z,19.35
2018-02-09T14:40:10.619Z,19.02
2018-02-09T14:42:39.151Z,18.73
2018-02-09T14:45:07.055Z,18.36
2018-02-09T14:47:34.681Z,17.62
2018-02-09T14:50:02.333Z,17.56
2018-02-09T14:52:30.109Z,17.60
2018-02-09T14:54:57.822Z,17.47
2018-02-09T14:57:25.477Z,17.20
2018-02-09T14:59:53.184Z,16.93
2018-02-09T15:02:20.889Z,16.72
2018-02-09T15:04:48.575Z,16.92
2018-02-09T15:07:16.709Z,16.25
2018-02-09T15:09:44.342Z,15.33
2018-02-09T15:12:11.943Z,14.23
2018-02-09T15:14:39.682Z,13.27
2018-02-09T15:17:07.501Z,12.53
2018-02-09T15:19:35.139Z,12.22
2018-02-09T15:22:02.777Z,11.93
2018-02-09T15:24:30.334Z,11.46
2018-02-09T15:26:58.229Z,11.18
2018-02-09T15:29:25.978Z,10.96
2018-02-09T15:31:53.802Z,10.72
2018-02-09T15:34:21.633Z,10.48
2018-02-09T15:36:49.244Z,10.24
2018-02-09T15:39:16.856Z,10.04
2018-02-09T15:41:44.429Z,9.80
2018-02-09T15:44:12.131Z,9.64
2018-02-09T15:46:39.784Z,9.53
2018-02-09T15:49:07.557Z,9.27
2018-02-09T15:51:35.146Z,9.22
2018-02-09T15:54:03.068Z,9.10
2018-02-09T15:56:31.054Z,8.95
2018-02-09T15:58:58.795Z,8.86
2018-02-09T16:01:26.621Z,8.75
2018-02-09T16:03:54.163Z,8.68
2018-02-09T16:06:21.718Z,8.61
2018-02-09T16:08:49.485Z,8.53
2018-02-09T16:11:17.303Z,8.45
2018-02-09T16:13:45.120Z,8.40
2018-02-09T16:16:12.676Z,8.37
2018-02-09T16:18:40.348Z,8.28
2018-02-09T16:21:08.075Z,8.22
2018-02-09T16:23:35.793Z,8.22
2018-02-09T16:26:03.403Z,8.17
2018-02-09T16:28:31.042Z,8.15
2018-02-09T16:30:58.956Z,8.09
2018-02-09T16:33:26.967Z,7.97
2018-02-09T16:35:54.766Z,7.92
2018-02-09T16:38:22.704Z,7.80
2018-02-09T16:40:50.262Z,7.70
2018-02-09T16:43:17.869Z,7.71
2018-02-09T16:45:45.655Z,7.69
2018-02-09T16:48:13.406Z,7.63
2018-02-09T16:50:40.980Z,7.62
2018-02-09T16:53:08.814Z,7.55
2018-02-09T16:55:36.863Z,7.53
2018-02-09T16:58:04.753Z,7.51
2018-02-09T17:00:32.531Z,7.46
2018-02-09T17:03:00.154Z,7.41
2018-02-09T17:05:27.853Z,7.33
2018-02-09T17:07:55.446Z,7.31
2018-02-09T17:10:23.009Z,7.24
2018-02-09T17:12:50.582Z,7.27
2018-02-09T17:15:18.141Z,7.23
2018-02-09T17:17:45.706Z,7.20
2018-02-09T17:20:13.269Z,7.22
2018-02-09T17:22:40.829Z,7.21
2018-02-09T17:25:08.438Z,7.18
2018-02-09T17:27:36.005Z,7.18
2018-02-09T17:30:03.629Z,7.14
2018-02-09T17:32:31.185Z,7.11
2018-02-09T17:34:58.741Z,7.06
2018-02-09T17:37:26.328Z,7.05
2018-02-09T17:39:54.016Z,7.01
2018-02-09T17:42:21.758Z,6.95
2018-02-09T17:44:49.478Z,6.96
2018-02-09T17:47:17.310Z,6.89
2018-02-09T17:49:44.882Z,6.89
2018-02-09T17:52:12.646Z,6.80
2018-02-09T17:54:40.213Z,6.79
2018-02-09T17:57:07.870Z,6.76
2018-02-09T17:59:35.496Z,6.64
2018-02-09T18:02:03.320Z,6.54
2018-02-09T18:04:30.937Z,6.50
2018-02-09T18:06:58.656Z,6.49
2018-02-09T18:09:26.391Z,6.42
2018-02-09T18:11:53.957Z,6.37
2018-02-09T18:14:21.545Z,6.37
2018-02-09T18:16:49.161Z,6.33
2018-02-09T18:19:16.748Z,6.23
2018-02-09T18:21:45.208Z,6.16
2018-02-09T18:24:12.853Z,6.06
2018-02-09T18:26:40.421Z,5.98
2018-02-09T18:29:07.993Z,5.95
2018-02-09T18:31:35.736Z,5.94
2018-02-09T18:34:03.550Z,5.88
2018-02-09T18:36:31.394Z,5.90
2018-02-09T18:38:59.017Z,5.91
2018-02-09T18:41:26.812Z,5.91
2018-02-09T18:43:54.384Z,5.87
2018-02-09T18:46:22.146Z,5.83
2018-02-09T18:48:49.741Z,5.81
2018-02-09T18:51:17.320Z,5.77
2018-02-09T18:53:44.903Z,5.73
2018-02-09T18:56:12.719Z,5.75
2018-02-09T18:58:40.289Z,5.79
2018-02-09T19:01:07.872Z,5.73
2018-02-09T19:03:35.556Z,5.75
2018-02-09T19:06:03.488Z,5.79
2018-02-09T19:08:31.053Z,5.80
2018-02-09T19:10:58.610Z,5.74
2018-02-09T19:13:26.609Z,5.67
2018-02-09T19:15:54.326Z,5.62
2018-02-09T19:18:21.888Z,5.56
2018-02-09T19:20:49.703Z,5.50
2018-02-09T19:23:17.405Z,5.47
2018-02-09T19:25:45.029Z,5.37
2018-02-09T19:28:12.602Z,5.35
2018-02-09T19:30:40.242Z,5.43
2018-02-09T19:33:07.891Z,5.36
2018-02-09T19:35:35.707Z,5.36
2018-02-09T19:38:03.277Z,5.34
2018-02-09T19:40:31.045Z,5.29
2018-02-09T19:42:58.648Z,5.27
2018-02-09T19:45:26.379Z,5.23
2018-02-09T19:47:53.997Z,5.21
2018-02-09T19:50:21.555Z,5.18
2018-02-09T19:52:49.471Z,5.12
2018-02-09T19:55:17.246Z,5.11
2018-02-09T19:57:44.818Z,5.15
2018-02-09T20:00:12.401Z,5.13
2018-02-09T20:02:40.200Z,5.13
2018-02-09T20:05:07.774Z,5.14
2018-02-09T20:07:35.637Z,5.14
2018-02-09T20:10:03.222Z,5.13
2018-02-09T20:12:30.959Z,5.15
2018-02-09T20:14:58.516Z,5.08
2018-02-09T20:17:26.154Z,4.97
2018-02-09T20:19:53.821Z,4.94
2018-02-09T20:22:21.640Z,4.92
2018-02-09T20:24:49.363Z,4.94
2018-02-09T20:27:16.972Z,4.90
2018-02-09T20:29:44.591Z,4.83
2018-02-09T20:32:12.281Z,4.79
2018-02-09T20:34:40.136Z,4.78
2018-02-09T20:37:07.711Z,4.81
2018-02-09T20:39:35.472Z,4.75
2018-02-09T20:42:03.042Z,4.80
2018-02-09T20:44:30.612Z,4.83
2018-02-09T20:46:58.425Z,4.82
2018-02-09T20:49:26.143Z,4.71
2018-02-09T20:51:53.963Z,4.61
2018-02-09T20:54:21.527Z,4.55
2018-02-09T20:56:49.085Z,4.39
2018-02-09T20:59:16.658Z,4.22
2018-02-09T21:01:44.313Z,4.16
2018-02-09T21:04:12.052Z,4.12
2018-02-09T21:06:39.610Z,4.12
2018-02-09T21:09:07.490Z,4.07
2018-02-09T21:11:35.097Z,4.09
2018-02-09T21:14:02.665Z,4.12
2018-02-09T21:16:30.232Z,4.13
2018-02-09T21:18:57.939Z,4.03
2018-02-09T21:21:25.526Z,4.09
2018-02-09T21:23:53.085Z,4.02
2018-02-09T21:26:20.887Z,4.08
2018-02-09T21:28:48.603Z,4.03
2018-02-09T21:31:16.158Z,3.95
2018-02-09T21:33:43.725Z,3.92
2018-02-09T21:36:11.274Z,3.84
2018-02-09T21:38:39.110Z,3.78
2018-02-09T21:41:06.826Z,3.75
2018-02-09T21:43:34.543Z,3.71
2018-02-09T21:46:02.273Z,3.68
2018-02-09T21:48:30.121Z,3.65
2018-02-09T21:50:57.738Z,3.59
2018-02-09T21:53:25.517Z,3.46
2018-02-09T21:55:53.091Z,3.49
2018-02-09T21:58:20.824Z,3.50
2018-02-09T22:00:48.425Z,3.44
2018-02-09T22:03:16.290Z,3.43
2018-02-09T22:05:43.921Z,3.41
2018-02-09T22:08:11.478Z,3.42
2018-02-09T22:10:39.204Z,3.38
2018-02-09T22:13:06.921Z,3.33
2018-02-09T22:15:34.781Z,3.28
2018-02-09T22:18:02.333Z,3.31
2018-02-09T22:20:30.008Z,3.27
2018-02-09T22:22:57.600Z,3.22
2018-02-09T22:25:25.245Z,3.22
2018-02-09T22:27:52.961Z,3.17
2018-02-09T22:30:20.604Z,3.20
2018-02-09T22:32:48.318Z,3.18
2018-02-09T22:35:15.897Z,3.16
2018-02-09T22:37:43.454Z,3.12
2018-02-09T22:40:11.070Z,3.16
2018-02-09T22:42:38.881Z,3.16
2018-02-09T22:45:06.595Z,3.13
2018-02-09T22:47:34.162Z,3.12
2018-02-09T22:50:01.913Z,3.13
2018-02-09T22:52:29.630Z,3.14
2018-02-09T22:54:57.186Z,3.15
2018-02-09T22:57:24.810Z,3.20
2018-02-09T22:59:52.403Z,3.16
2018-02-09T23:02:19.961Z,3.02
2018-02-09T23:04:47.527Z,2.97
2018-02-09T23:07:15.260Z,2.92
2018-02-09T23:09:43.078Z,2.82
2018-02-09T23:12:10.629Z,2.78
2018-02-09T23:14:38.377Z,2.80
2018-02-09T23:17:05.941Z,2.78
2018-02-09T23:19:33.505Z,2.66
2018-02-09T23:22:01.266Z,2.50
2018-02-09T23:24:28.817Z,2.52
2018-02-09T23:26:56.432Z,2.46
2018-02-09T23:29:24.221Z,2.41
2018-02-09T23:31:52.040Z,2.45
2018-02-09T23:34:19.615Z,2.49
2018-02-09T23:36:47.346Z,2.49
2018-02-09T23:39:14.905Z,2.51
2018-02-09T23:41:42.466Z,2.57
2018-02-09T23:44:10.328Z,2.57
2018-02-09T23:46:38.148Z,2.56
2018-02-09T23:49:05.697Z,2.58
2018-02-09T23:51:33.257Z,2.59
2018-02-09T23:54:01.101Z,2.60
2018-02-09T23:56:28.670Z,2.45
2018-02-09T23:58:56.224Z,2.49
